Jackson, MS (39201)

4:00 PM CDT on September 18, 2014 (GMT -0500)
Brinkly | Change Station
CLOSE
Current Station
Personal Weather Station
Location: Jackson, MS
Elevation: 344 ft
Nearby Weather Stations

Elev 344 ft 32.35 °N, 90.20 °W | Updated 15 minutes ago

Mostly Cloudy
Mostly Cloudy
87.1 °F
Feels Like 103 °F
N
0.0
Wind Variable Wind from South

Today
High -- | Low -- °F
--% Chance of Precip.
Yesterday
High -- | Low -- °F
Precip. -- in
6:46 AM 7:02 PM
Waning Crescent, 24% visible
Pressure 29.86 in
Visibility 4.0 miles
Clouds Few 4400 ft
Mostly Cloudy 5500 ft
Heat Index 103 °F
Dew Point 80 °F
Humidity 79%
Rainfall 0.00 in
Snow Depth Not available.
UV 3 out of 12
Pollen 10.10 out of 12
Air Quality Not available.
Flu Activity Not available.
METAR KHKS 182053Z 16006KT 4SM +RA FEW044 BKN055 29/22 A2988 RMK AO2 LTG DSNT N RAB48 SLP109 P0003 60003 T02890222 56021

More Conditions Fewer Conditions

Pressure 29.86 in
Visibility 4.0 miles
Clouds Few 4400 ft
Mostly Cloudy 5500 ft
Heat Index 103 °F
Dew Point 80 °F
Humidity 79%
Rainfall 0.00 in
Snow Depth Not available.
UV 3 out of 12
Pollen 10.10 out of 12
Air Quality Not available.
Flu Activity Not available.
METAR KHKS 182053Z 16006KT 4SM +RA FEW044 BKN055 29/22 A2988 RMK AO2 LTG DSNT N RAB48 SLP109 P0003 60003 T02890222 56021

More Conditions Fewer Conditions

10-Day Weather Forecast

Almanac

Astronomy

Sep. 18, 2014 Rise Set
Actual Time 6:46 AM CDT 7:02 PM CDT
Civil Twilight 6:21 AM CDT 7:27 PM CDT
Nautical Twilight 5:53 AM CDT 7:55 PM CDT
Astronomical Twilight 5:24 AM CDT 8:24 PM CDT
Moon 1:51 AM CDT 3:41 PM CDT
Length of Visible Light 13h 05m
Length of Day
12h 16m
Tomorrow will be 1m 57s shorter.
Waning Crescent, 24% of the Moon is Illuminated
Today
Waning Crescent
Sep 24
New
Oct 1
First Quarter
Oct 8
Full
Oct 15
Last Quarter

Today's Extremes

State Highs State Lows

Community

WunderPhotos

Upload Photos

1,754,444 photos uploaded!

WunderBlogs® & News

By Dr. Jeff Masters
Director of Meteorology, Weather Underground
By Kari Strenfel
Meteorologist, Weather Underground
By Christopher C. Burt
Weather Historian, Weather Underground
September 18, 2014
September 18, 2014
September 18, 2014

Nearby

Snow Depth

Station Depth Elevation
No new snow has been reported.

Earthquake Activity

City Distance Mag. Time & Date
No recent earthquake activity has been reported nearby.
Minimum magnitude displayed is 2.5.

Coastal Water Temperatures

Place Temperature
No Stations Reporting

Nearby Weather Stations